METAR Data
IDs: Format: Raw Decoded Include TAF

Data at: 0626 UTC 23 Feb 2019

PAKN 230554Z 09006KT 10SM CLR M03/M07 A3022 RMK AO2 SLP235 T10331067 10011 21033 53006
PAKN 230454Z 10004KT 10SM CLR M03/M07 A3021 RMK AO2 SLP230 T10281067
PAKN 230354Z 11005KT 10SM CLR M02/M06 A3020 RMK AO2 SLP227 T10171056
PAKN 230254Z 09005KT 10SM CLR M01/M05 A3020 RMK AO2 SLP229 T10061050 56007
PAKN 230154Z 08006KT 10SM CLR 01/M06 A3020 RMK AO2 SLP229 T00111061
PAKN 230054Z 07005KT 10SM CLR 01/M06 A3021 RMK AO2 SLP232 T00061056
PAKN 222354Z 07006KT 10SM CLR 00/M06 A3022 RMK AO2 SLP236 T00001056 10000 21089 58006
PAKN 222254Z 09004KT 10SM CLR M02/M05 A3023 RMK AO2 SLP239 T10171050
PAKN 222154Z 05006KT 9SM FEW120 M02/M04 A3024 RMK AO2 SLP241 T10221039
PAKN 222106Z 07008KT 7SM SCT003 M03/M04 A3024 RMK AO2 T10331044
PAKN 222054Z 07007KT 7SM BKN003 M03/M04 A3024 RMK AO2 SLP242 T10331044 58001
PAKN 222004Z 08005KT 2SM BR BKN003 M06/M07 A3025 RMK AO2 T10561067
PAKN 222001Z 00000KT 3SM BR BKN003 M06/M07 A3025 RMK AO2 T10561072
PAKN 221954Z 00000KT 2SM BR OVC002 M06/M07 A3025 RMK AO2 SLP244 T10611067
PAKN 221933Z 00000KT 2SM BR OVC002 M07/M07 A3025 RMK AO2 T10671072
PAKN 221856Z 00000KT 1/2SM R12/2200V5000FT FZFG VV002 M08/M09 A3024 RMK AO2 T10781089
PAKN 221854Z 00000KT 1/8SM R12/2000V5000FT FZFG VV002 M08/M09 A3025 RMK AO2 SLP243 T10781089
PAKN 221852Z 00000KT 1/8SM R12/1800V5000FT FZFG VV002 M08/M09 A3025 RMK AO2
PAKN 221833Z 00000KT 1/8SM R12/1200V1400FT FZFG VV002 M08/M09 A3025 RMK AO2 T10781094
PAKN 221826Z 00000KT 1/8SM R12/1200V2400FT FZFG VV002 M08/M10 A3025 RMK AO2 T10831100
PAKN 221801Z 00000KT 1/2SM R12/4500VP6000FT FZFG BKN002 M09/M10 A3025 RMK AO2 T10891100
PAKN 221754Z 14003KT 1SM R12/P6000FT BR BKN002 M09/M11 A3025 RMK AO2 SLP244 I1000 I6000 T10891106 11072 21094 58006
PAKN 221749Z 13003KT 1SM R12/P6000FT BR BKN002 M09/M11 A3025 RMK AO2 I1000
PAKN 221745Z 12003KT 4SM BR SCT002 M09/M11 A3025 RMK AO2 I1000 T10941111
PAKN 221654Z AUTO 10004KT 10SM CLR M09/M11 A3026 RMK AO2 SLP248 I1000 T10941106 TSNO
PAKN 221554Z AUTO 09004KT 10SM CLR M09/M11 A3026 RMK AO2 SLP249 I1000 T10941111 TSNO
PAKN 221454Z AUTO 11004KT 9SM CLR M09/M11 A3027 RMK AO2 SLP250 I1000 I3000 T10941111 55003 TSNO
PAKN 221354Z AUTO 12003KT 9SM CLR M09/M10 A3026 RMK AO2 SLP247 I1000 T10891100 TSNO
PAKN 221254Z 00000KT 9SM CLR M09/M11 A3027 RMK AO2 SLP250 I1000 T10891106
PAKN 221154Z 23005KT 9SM CLR M08/M10 A3028 RMK AO2 SLP253 70001 I6001 T10831100 11028 21083 53008
PAKN 221054Z 19004KT 9SM CLR M07/M08 A3027 RMK AO2 SLP250 I1001 T10721083
PAKN 220954Z 12003KT 8SM CLR M07/M09 A3026 RMK AO2 SLP247 I1000 T10721089
PAKN 220854Z 16003KT 8SM CLR M07/M08 A3025 RMK AO2 SLP245 T10671078 400171067 53007
PAKN 220754Z 00000KT 9SM CLR M06/M07 A3025 RMK AO2 SLP245 T10611067
PAKN 220654Z 31004KT 9SM CLR M04/M06 A3022 RMK AO2 SLP236 T10391061
PAKN 220554Z 31003KT 9SM CLR M03/M06 A3023 RMK AO2 SLP237 T10281056 10017 21028 51011
PAKN 220454Z 27006KT 9SM CLR M02/M04 A3022 RMK AO2 SLP236 T10221044
PAKN 220354Z 28007KT 9SM CLR M02/M04 A3021 RMK AO2 SLP232 T10171039
PAKN 220254Z 28009KT 7SM CLR M01/M04 A3020 RMK AO2 SLP226 T10111039 51012
PAKN 220154Z 30009KT 8SM CLR 01/M03 A3019 RMK AO2 SLP225 T00061033
PAKN 220054Z 27014KT 8SM CLR 01/M03 A3018 RMK AO2 SLP221 T00111033
PAKN 212354Z 29013KT 8SM FEW012 01/M03 A3016 RMK AO2 SLP215 T00111028 10011 21022 50005
PAKN 212342Z 28015G21KT 8SM FEW005 01/M03 A3017 RMK AO2 T00111028
PAKN 212254Z 28012KT 9SM CLR 01/M03 A3016 RMK AO2 SLP215 T00111028
PAKN 212154Z 29007KT 10SM FEW014 01/M02 A3016 RMK AO2 SLP214 T00111022
PAKN 212054Z 31006KT 10SM CLR 01/M03 A3015 RMK AO2 SLP210 T00061028 51034
PAKN 211954Z 30005KT 10SM CLR M01/M03 A3012 RMK AO2 SLP200 T10061033
PAKN 211854Z 32005KT 10SM CLR M02/M04 A3009 RMK AO2 SLP189 T10171039